createdAt,value
2023-04-17T00:00:32.792Z,0.75
2023-04-17T00:01:32.811Z,0.76
2023-04-17T00:02:32.908Z,0.76
2023-04-17T00:03:32.952Z,0.75
2023-04-17T00:04:33.042Z,0.76
2023-04-17T00:05:32.874Z,0.76
2023-04-17T00:06:32.857Z,0.77
2023-04-17T00:07:32.913Z,0.75
2023-04-17T00:08:32.952Z,0.74
2023-04-17T00:09:32.960Z,0.76
2023-04-17T00:10:32.993Z,0.75
2023-04-17T00:11:32.984Z,0.76
2023-04-17T00:12:33.005Z,0.77
2023-04-17T00:13:33.043Z,0.75
2023-04-17T00:14:33.041Z,0.77
2023-04-17T00:15:33.101Z,0.77
2023-04-17T00:16:33.212Z,0.77
2023-04-17T00:17:33.193Z,0.76
2023-04-17T00:18:33.132Z,0.75
2023-04-17T00:19:33.167Z,0.76
2023-04-17T00:20:33.186Z,0.78
2023-04-17T00:21:33.165Z,0.77
2023-04-17T00:22:33.207Z,0.77
2023-04-17T00:23:33.167Z,0.77
2023-04-17T00:24:33.213Z,0.75
2023-04-17T00:25:33.199Z,0.77
2023-04-17T00:26:33.202Z,0.76
2023-04-17T00:27:33.209Z,0.76
2023-04-17T00:28:33.177Z,0.76
2023-04-17T00:29:33.216Z,0.76
2023-04-17T00:30:33.229Z,0.76
2023-04-17T00:31:33.240Z,0.78
2023-04-17T00:32:33.261Z,0.77
2023-04-17T00:33:33.297Z,0.78
2023-04-17T00:34:33.255Z,0.78
2023-04-17T00:35:33.242Z,0.77
2023-04-17T00:36:33.264Z,0.75
2023-04-17T00:37:33.265Z,0.77
2023-04-17T00:38:33.249Z,0.78
2023-04-17T00:39:33.283Z,0.77
2023-04-17T00:40:33.279Z,0.75
2023-04-17T00:41:33.294Z,0.76
2023-04-17T00:42:33.318Z,0.77
2023-04-17T00:43:33.319Z,0.75
2023-04-17T00:44:33.366Z,0.76
2023-04-17T00:45:33.448Z,0.75
2023-04-17T00:46:33.411Z,0.77
2023-04-17T00:47:33.523Z,0.77
2023-04-17T00:48:33.451Z,0.76
2023-04-17T00:49:33.498Z,0.76
2023-04-17T00:50:33.573Z,0.78
2023-04-17T00:51:33.489Z,0.77
2023-04-17T00:52:33.507Z,0.76
2023-04-17T00:53:33.553Z,0.77
2023-04-17T00:54:33.518Z,0.76
2023-04-17T00:55:33.495Z,0.77
2023-04-17T00:56:33.500Z,0.76
2023-04-17T00:57:33.557Z,0.76
2023-04-17T00:58:33.513Z,0.78
2023-04-17T00:59:33.577Z,0.76
2023-04-17T01:00:33.562Z,0.75
2023-04-17T01:01:33.582Z,0.78
2023-04-17T01:02:33.672Z,0.76
2023-04-17T01:03:33.747Z,0.77
2023-04-17T01:04:33.654Z,0.77
2023-04-17T01:05:33.621Z,0.78
2023-04-17T01:06:33.588Z,0.76
2023-04-17T01:07:33.613Z,0.77
2023-04-17T01:08:33.570Z,0.78
2023-04-17T01:09:33.590Z,0.77
2023-04-17T01:10:33.600Z,0.78
2023-04-17T01:11:33.651Z,0.77
2023-04-17T01:12:33.638Z,0.75
2023-04-17T01:13:33.646Z,0.79
2023-04-17T01:14:33.652Z,0.76
2023-04-17T01:15:33.675Z,0.79
2023-04-17T01:16:33.721Z,0.78
2023-04-17T01:17:33.719Z,0.78
2023-04-17T01:18:33.650Z,0.78
2023-04-17T01:19:33.660Z,0.78
2023-04-17T01:20:33.679Z,0.77
2023-04-17T01:21:33.658Z,0.78
2023-04-17T01:22:33.664Z,0.77
2023-04-17T01:23:33.668Z,0.77
2023-04-17T01:24:33.686Z,0.77
2023-04-17T01:25:33.692Z,0.77
2023-04-17T01:26:33.688Z,0.78
2023-04-17T01:27:33.678Z,0.78
2023-04-17T01:28:33.704Z,0.78
2023-04-17T01:29:33.693Z,0.78
2023-04-17T01:30:33.732Z,0.78
2023-04-17T01:31:33.721Z,0.78
2023-04-17T01:32:33.782Z,0.78
2023-04-17T01:33:33.749Z,0.76
2023-04-17T01:34:35.634Z,0.77
2023-04-17T01:35:33.722Z,0.80
2023-04-17T01:36:33.741Z,0.80
2023-04-17T01:37:33.711Z,0.79
2023-04-17T01:38:33.716Z,0.79
2023-04-17T01:39:33.703Z,0.77
2023-04-17T01:40:33.708Z,0.78
2023-04-17T01:41:33.718Z,0.77
2023-04-17T01:42:33.663Z,0.78
2023-04-17T01:43:33.687Z,0.79
2023-04-17T01:44:33.663Z,0.79
2023-04-17T01:45:33.680Z,0.79
2023-04-17T01:46:33.756Z,0.77
2023-04-17T01:47:33.644Z,0.78
2023-04-17T01:48:33.640Z,0.78
2023-04-17T01:49:33.612Z,0.79
2023-04-17T01:50:33.641Z,0.77
2023-04-17T01:51:33.612Z,0.77
2023-04-17T01:52:33.639Z,0.77
2023-04-17T01:53:33.616Z,0.80
2023-04-17T01:54:33.623Z,0.79
2023-04-17T01:55:33.579Z,0.78
2023-04-17T01:56:33.595Z,0.76
2023-04-17T01:57:33.589Z,0.78
2023-04-17T01:58:33.608Z,0.78
2023-04-17T01:59:33.591Z,0.79
2023-04-17T02:00:33.573Z,0.77
2023-04-17T02:01:33.654Z,0.76
2023-04-17T02:02:33.673Z,0.78
2023-04-17T02:03:33.707Z,0.78
2023-04-17T02:04:33.572Z,0.78
2023-04-17T02:05:33.545Z,0.78
2023-04-17T02:06:33.527Z,0.78
2023-04-17T02:07:33.539Z,0.78
2023-04-17T02:08:33.588Z,0.76
2023-04-17T02:09:33.515Z,0.78
2023-04-17T02:10:33.523Z,0.78
2023-04-17T02:11:33.504Z,0.79
2023-04-17T02:12:33.491Z,0.79
2023-04-17T02:13:33.494Z,0.78
2023-04-17T02:14:33.510Z,0.78
2023-04-17T02:15:33.613Z,0.78
2023-04-17T02:16:33.569Z,0.79
2023-04-17T02:17:33.500Z,0.79
2023-04-17T02:18:33.472Z,0.77
2023-04-17T02:19:33.461Z,0.79
2023-04-17T02:20:33.456Z,0.78
2023-04-17T02:21:33.443Z,0.77
2023-04-17T02:22:33.456Z,0.79
2023-04-17T02:23:33.402Z,0.78
2023-04-17T02:24:33.428Z,0.79
2023-04-17T02:25:33.409Z,0.78
2023-04-17T02:26:33.421Z,0.79
2023-04-17T02:27:33.386Z,0.78
2023-04-17T02:28:33.395Z,0.76
2023-04-17T02:29:33.394Z,0.78
2023-04-17T02:30:33.406Z,0.78
2023-04-17T02:31:33.433Z,0.79
2023-04-17T02:32:33.494Z,0.78
2023-04-17T02:33:33.359Z,0.79
2023-04-17T02:34:33.320Z,0.77
2023-04-17T02:35:33.347Z,0.78
2023-04-17T02:36:33.344Z,0.77
2023-04-17T02:37:33.345Z,0.76
2023-04-17T02:38:33.309Z,0.76
2023-04-17T02:39:33.281Z,0.78
2023-04-17T02:40:33.381Z,0.78
2023-04-17T02:41:33.317Z,0.78
2023-04-17T02:42:33.300Z,0.78
2023-04-17T02:43:33.292Z,0.78
2023-04-17T02:44:33.261Z,0.78
2023-04-17T02:45:33.285Z,0.77
2023-04-17T02:46:33.288Z,0.77
2023-04-17T02:47:33.348Z,0.78
2023-04-17T02:48:33.262Z,0.77
2023-04-17T02:49:33.240Z,0.78
2023-04-17T02:50:33.249Z,0.77
2023-04-17T02:51:33.217Z,0.78
2023-04-17T02:52:33.275Z,0.78
2023-04-17T02:53:33.216Z,0.78
2023-04-17T02:54:33.195Z,0.78
2023-04-17T02:55:33.177Z,0.78
2023-04-17T02:56:33.176Z,0.78
2023-04-17T02:57:33.192Z,0.78
2023-04-17T02:58:33.180Z,0.78
2023-04-17T02:59:33.151Z,0.79
2023-04-17T03:00:33.212Z,0.77
2023-04-17T03:01:33.227Z,0.77
2023-04-17T03:02:33.251Z,0.78
2023-04-17T03:03:33.266Z,0.78
2023-04-17T03:04:33.134Z,0.78
2023-04-17T03:05:33.153Z,0.78
2023-04-17T03:06:33.143Z,0.77
2023-04-17T03:07:33.142Z,0.77
2023-04-17T03:08:33.201Z,0.78
2023-04-17T03:09:33.117Z,0.77
2023-04-17T03:10:33.109Z,0.78
2023-04-17T03:11:33.103Z,0.78
2023-04-17T03:12:33.187Z,0.79
2023-04-17T03:13:33.112Z,0.79
2023-04-17T03:14:33.088Z,0.78
2023-04-17T03:15:33.079Z,0.78
2023-04-17T03:16:33.166Z,0.78
2023-04-17T03:17:33.083Z,0.77
2023-04-17T03:18:33.041Z,0.77
2023-04-17T03:19:33.068Z,0.77
2023-04-17T03:20:33.060Z,0.78
2023-04-17T03:21:33.043Z,0.78
2023-04-17T03:22:33.049Z,0.78
2023-04-17T03:23:33.026Z,0.78
2023-04-17T03:24:33.019Z,0.78
2023-04-17T03:25:33.022Z,0.78
2023-04-17T03:26:32.999Z,0.78
2023-04-17T03:27:33.007Z,0.76
2023-04-17T03:28:33.007Z,0.78
2023-04-17T03:29:33.007Z,0.78
2023-04-17T03:30:33.002Z,0.78
2023-04-17T03:31:32.993Z,0.78
2023-04-17T03:32:32.964Z,0.78
2023-04-17T03:33:32.937Z,0.77
2023-04-17T03:34:32.962Z,0.79
2023-04-17T03:35:32.965Z,0.78
2023-04-17T03:36:32.954Z,0.77
2023-04-17T03:37:32.932Z,0.77
2023-04-17T03:38:32.945Z,0.77
2023-04-17T03:39:32.921Z,0.76
2023-04-17T03:40:33.712Z,0.78
2023-04-17T03:41:32.930Z,0.77
2023-04-17T03:42:32.902Z,0.77
2023-04-17T03:43:32.888Z,0.77
2023-04-17T03:44:32.920Z,0.77
2023-04-17T03:45:32.925Z,0.78
2023-04-17T03:46:32.857Z,0.77
2023-04-17T03:47:32.973Z,0.78
2023-04-17T03:48:32.871Z,0.77
2023-04-17T03:49:32.887Z,0.76
2023-04-17T03:50:32.920Z,0.78
2023-04-17T03:51:32.864Z,0.77
2023-04-17T03:52:32.857Z,0.78
2023-04-17T03:53:32.845Z,0.78
2023-04-17T03:54:32.834Z,0.76
2023-04-17T03:55:32.809Z,0.79
2023-04-17T03:56:32.836Z,0.76
2023-04-17T03:57:32.835Z,0.78
2023-04-17T03:58:32.803Z,0.77
2023-04-17T03:59:32.780Z,0.77
2023-04-17T04:00:32.767Z,0.77
2023-04-17T04:01:32.865Z,0.77
2023-04-17T04:02:32.818Z,0.77
2023-04-17T04:03:33.025Z,0.77
2023-04-17T04:04:32.894Z,0.78
2023-04-17T04:05:32.770Z,0.77
2023-04-17T04:06:32.816Z,0.79
2023-04-17T04:07:32.729Z,0.78
2023-04-17T04:08:32.704Z,0.77
2023-04-17T04:09:32.771Z,0.76
2023-04-17T04:10:32.742Z,0.76
2023-04-17T04:11:32.722Z,0.76
2023-04-17T04:12:32.707Z,0.76
2023-04-17T04:13:32.708Z,0.77
2023-04-17T04:14:32.688Z,0.77
2023-04-17T04:15:32.683Z,0.76
2023-04-17T04:16:32.710Z,0.77
2023-04-17T04:17:32.724Z,0.77
2023-04-17T04:18:32.659Z,0.78
2023-04-17T04:19:32.619Z,0.77
2023-04-17T04:20:32.634Z,0.77
2023-04-17T04:21:32.646Z,0.77
2023-04-17T04:22:32.635Z,0.77
2023-04-17T04:23:32.647Z,0.75
2023-04-17T04:24:32.601Z,0.78
2023-04-17T04:25:32.602Z,0.77
2023-04-17T04:26:32.607Z,0.77
2023-04-17T04:27:32.621Z,0.78
2023-04-17T04:28:32.678Z,0.77
2023-04-17T04:29:32.680Z,0.75
2023-04-17T04:30:32.693Z,0.76
2023-04-17T04:31:32.716Z,0.77
2023-04-17T04:32:32.744Z,0.77
2023-04-17T04:33:32.774Z,0.76
2023-04-17T04:34:32.805Z,0.77
2023-04-17T04:35:32.858Z,0.76
2023-04-17T04:36:32.849Z,0.76
2023-04-17T04:37:32.847Z,0.76
2023-04-17T04:38:33.130Z,0.76
2023-04-17T04:39:32.864Z,0.76
2023-04-17T04:40:32.907Z,0.78
2023-04-17T04:41:32.961Z,0.79
2023-04-17T04:42:32.985Z,0.77
2023-04-17T04:43:32.962Z,0.77
2023-04-17T04:44:32.992Z,0.78
2023-04-17T04:45:32.973Z,0.77
2023-04-17T04:46:33.039Z,0.76
2023-04-17T04:47:33.039Z,0.77
2023-04-17T04:48:33.030Z,0.76
2023-04-17T04:49:32.982Z,0.78
2023-04-17T04:50:33.023Z,0.79
2023-04-17T04:51:33.034Z,0.78
2023-04-17T04:52:33.025Z,0.80
2023-04-17T04:53:33.024Z,0.78
2023-04-17T04:54:32.996Z,0.80
2023-04-17T04:55:32.985Z,0.78
2023-04-17T04:56:33.179Z,0.80
2023-04-17T04:57:33.020Z,0.80
2023-04-17T04:58:32.996Z,0.81
2023-04-17T04:59:33.014Z,0.79
2023-04-17T05:00:33.013Z,0.81
2023-04-17T05:01:33.118Z,0.82
2023-04-17T05:02:33.160Z,0.82
2023-04-17T05:03:33.176Z,0.83
2023-04-17T05:04:33.109Z,0.81
2023-04-17T05:05:33.034Z,0.81
2023-04-17T05:06:33.059Z,0.83
2023-04-17T05:07:33.037Z,0.83
2023-04-17T05:08:33.062Z,0.84
2023-04-17T05:09:33.022Z,0.84
2023-04-17T05:10:33.081Z,0.85
2023-04-17T05:11:33.077Z,0.84
2023-04-17T05:12:33.050Z,0.86
2023-04-17T05:13:33.081Z,0.88
2023-04-17T05:14:33.078Z,0.85
2023-04-17T05:15:33.109Z,0.84
2023-04-17T05:16:33.145Z,0.87
2023-04-17T05:17:33.109Z,0.85
2023-04-17T05:18:33.125Z,0.86
2023-04-17T05:19:33.124Z,0.86
2023-04-17T05:20:33.096Z,0.89
2023-04-17T05:21:33.101Z,0.87
2023-04-17T05:22:33.088Z,0.88
2023-04-17T05:23:33.102Z,0.88
2023-04-17T05:24:33.136Z,0.88
2023-04-17T05:25:33.096Z,0.89
2023-04-17T05:26:33.082Z,0.91
2023-04-17T05:27:33.099Z,0.90
2023-04-17T05:28:33.110Z,0.91
2023-04-17T05:29:33.097Z,0.91
2023-04-17T05:30:33.086Z,0.92
2023-04-17T05:31:33.162Z,0.94
2023-04-17T05:32:33.103Z,0.92
2023-04-17T05:33:33.091Z,0.94
2023-04-17T05:34:33.103Z,0.93
2023-04-17T05:35:33.142Z,0.95
2023-04-17T05:36:33.119Z,0.95
2023-04-17T05:37:33.112Z,0.96
2023-04-17T05:38:33.136Z,0.95
2023-04-17T05:39:33.103Z,0.95
2023-04-17T05:40:33.142Z,0.95
2023-04-17T05:41:33.247Z,0.96
2023-04-17T05:42:33.114Z,0.98
2023-04-17T05:43:33.092Z,0.98
2023-04-17T05:44:33.140Z,1.00
2023-04-17T05:45:33.132Z,1.02
2023-04-17T05:46:33.216Z,1.01
2023-04-17T05:47:33.167Z,1.03
2023-04-17T05:48:33.130Z,1.02
2023-04-17T05:49:33.125Z,1.04
2023-04-17T05:50:33.125Z,1.01
2023-04-17T05:51:33.249Z,1.05
2023-04-17T05:52:33.156Z,1.04
2023-04-17T05:53:33.185Z,1.05
2023-04-17T05:54:33.178Z,1.08
2023-04-17T05:55:33.167Z,1.05
2023-04-17T05:56:33.245Z,1.09
2023-04-17T05:57:33.181Z,1.06
2023-04-17T05:58:33.174Z,1.17
2023-04-17T05:59:33.149Z,1.15
2023-04-17T06:00:33.152Z,1.17
2023-04-17T06:01:33.168Z,1.19
2023-04-17T06:02:33.349Z,1.29
2023-04-17T06:03:33.466Z,1.27
2023-04-17T06:04:33.669Z,1.34
2023-04-17T06:05:33.395Z,1.41
2023-04-17T06:06:33.379Z,1.64
2023-04-17T06:07:33.439Z,1.64
2023-04-17T06:08:33.476Z,1.69
2023-04-17T06:09:33.591Z,1.71
2023-04-17T06:10:33.609Z,1.76
2023-04-17T06:11:33.625Z,1.86
2023-04-17T06:12:33.649Z,1.97
2023-04-17T06:13:33.690Z,2.10
2023-04-17T06:14:33.721Z,2.20
2023-04-17T06:15:33.722Z,2.26
2023-04-17T06:16:33.863Z,2.38
2023-04-17T06:17:33.907Z,2.54
2023-04-17T06:18:33.807Z,2.53
2023-04-17T06:19:33.848Z,2.65
2023-04-17T06:20:33.878Z,2.83
2023-04-17T06:21:33.868Z,2.86
2023-04-17T06:22:33.872Z,3.03
2023-04-17T06:23:33.858Z,3.16
2023-04-17T06:24:33.866Z,3.23
2023-04-17T06:25:33.881Z,3.36
2023-04-17T06:26:34.228Z,3.47
2023-04-17T06:27:36.382Z,3.58
2023-04-17T06:28:33.901Z,3.72
2023-04-17T06:29:33.876Z,3.88
2023-04-17T06:30:33.976Z,3.94
2023-04-17T06:31:33.911Z,4.05
2023-04-17T06:32:33.882Z,4.13
2023-04-17T06:33:33.896Z,4.23
2023-04-17T06:34:33.840Z,4.32
2023-04-17T06:35:33.829Z,4.53
2023-04-17T06:36:33.818Z,4.69
2023-04-17T06:37:33.830Z,4.82
2023-04-17T06:38:33.797Z,4.82
2023-04-17T06:39:33.799Z,4.87
2023-04-17T06:40:33.810Z,5.07
2023-04-17T06:41:33.767Z,5.20
2023-04-17T06:42:33.805Z,5.51
2023-04-17T06:43:33.755Z,5.64
2023-04-17T06:44:33.770Z,5.74
2023-04-17T06:45:33.783Z,6.16
2023-04-17T06:46:34.271Z,6.43
2023-04-17T06:47:33.808Z,6.70
2023-04-17T06:48:33.721Z,6.75
2023-04-17T06:49:33.744Z,6.91
2023-04-17T06:50:33.699Z,6.96
2023-04-17T06:51:33.693Z,7.02
2023-04-17T06:52:33.741Z,6.88
2023-04-17T06:53:33.699Z,6.98
2023-04-17T06:54:33.672Z,7.03
2023-04-17T06:55:33.715Z,7.04
2023-04-17T06:56:33.695Z,6.78
2023-04-17T06:57:33.662Z,6.71
2023-04-17T06:58:33.649Z,6.64
2023-04-17T06:59:33.660Z,6.68
2023-04-17T07:00:33.652Z,6.79
2023-04-17T07:01:33.656Z,6.65
2023-04-17T07:02:33.722Z,6.74
2023-04-17T07:03:33.983Z,6.55
2023-04-17T07:04:33.669Z,6.55
2023-04-17T07:05:33.609Z,6.76
2023-04-17T07:06:33.606Z,6.81
2023-04-17T07:07:33.600Z,7.09
2023-04-17T07:08:33.609Z,7.13
2023-04-17T07:09:33.579Z,7.20
2023-04-17T07:10:33.566Z,7.18
2023-04-17T07:11:33.579Z,7.27
2023-04-17T07:12:33.678Z,7.27
2023-04-17T07:13:33.564Z,7.16
2023-04-17T07:14:33.608Z,7.23
2023-04-17T07:15:33.616Z,7.24
2023-04-17T07:16:33.578Z,7.38
2023-04-17T07:17:33.574Z,7.39
2023-04-17T07:18:33.521Z,7.29
2023-04-17T07:19:33.549Z,7.36
2023-04-17T07:20:33.505Z,7.53
2023-04-17T07:21:33.499Z,7.60
2023-04-17T07:22:33.498Z,7.58
2023-04-17T07:23:33.471Z,7.54
2023-04-17T07:24:33.477Z,7.58
2023-04-17T07:25:33.509Z,7.70
2023-04-17T07:26:33.475Z,7.69
2023-04-17T07:27:33.463Z,7.87
2023-04-17T07:28:33.452Z,7.77
2023-04-17T07:29:33.437Z,8.00
2023-04-17T07:30:33.442Z,7.86
2023-04-17T07:31:33.447Z,8.06
2023-04-17T07:32:33.439Z,7.90
2023-04-17T07:33:33.429Z,7.81
2023-04-17T07:34:33.407Z,7.73
2023-04-17T07:35:33.408Z,7.71
2023-04-17T07:36:33.388Z,7.80
2023-04-17T07:37:33.413Z,7.77
2023-04-17T07:38:33.401Z,7.78
2023-04-17T07:39:33.358Z,7.74
2023-04-17T07:40:33.375Z,8.00
2023-04-17T07:41:33.370Z,8.40
2023-04-17T07:42:33.765Z,7.97
2023-04-17T07:43:33.366Z,8.16
2023-04-17T07:44:33.585Z,15.61
2023-04-17T07:45:33.432Z,11.40
2023-04-17T07:46:33.511Z,10.08
2023-04-17T07:47:33.834Z,10.22
2023-04-17T07:48:33.596Z,10.42
2023-04-17T07:49:33.630Z,10.34
2023-04-17T07:50:33.667Z,10.66
2023-04-17T07:51:33.707Z,10.76
2023-04-17T07:52:33.834Z,11.04
2023-04-17T07:53:33.834Z,11.39
2023-04-17T07:54:33.881Z,11.21
2023-04-17T07:55:33.881Z,11.36
2023-04-17T07:56:33.920Z,11.58
2023-04-17T07:57:33.964Z,11.24
2023-04-17T07:58:33.988Z,11.68
2023-04-17T07:59:34.024Z,11.39
2023-04-17T08:00:34.041Z,11.73
2023-04-17T08:01:34.085Z,11.34
2023-04-17T08:02:34.174Z,11.35
2023-04-17T08:03:34.460Z,12.34
2023-04-17T08:04:34.443Z,12.00
2023-04-17T08:05:34.177Z,12.07
2023-04-17T08:06:34.183Z,12.43
2023-04-17T08:07:34.243Z,12.06
2023-04-17T08:08:34.251Z,12.02
2023-04-17T08:09:34.274Z,12.57
2023-04-17T08:10:34.319Z,12.69
2023-04-17T08:11:40.156Z,12.33
2023-04-17T08:12:35.778Z,12.34
2023-04-17T08:13:34.377Z,12.40
2023-04-17T08:14:34.331Z,12.53
2023-04-17T08:15:34.293Z,12.94
2023-04-17T08:16:34.528Z,12.93
2023-04-17T08:17:34.488Z,12.65
2023-04-17T08:18:34.313Z,12.97
2023-04-17T08:19:34.278Z,13.11
2023-04-17T08:20:34.268Z,13.18
2023-04-17T08:21:34.288Z,12.92
2023-04-17T08:22:34.263Z,12.67
2023-04-17T08:23:34.284Z,12.93
2023-04-17T08:24:34.257Z,13.09
2023-04-17T08:25:34.240Z,13.42
2023-04-17T08:26:34.212Z,13.35
2023-04-17T08:27:34.235Z,13.88
2023-04-17T08:28:34.250Z,14.20
2023-04-17T08:29:41.526Z,15.10
2023-04-17T08:30:34.205Z,15.17
2023-04-17T08:31:34.229Z,15.35
2023-04-17T08:32:34.369Z,15.53
2023-04-17T08:33:34.177Z,15.49
2023-04-17T08:34:34.186Z,15.47
2023-04-17T08:35:34.182Z,14.79
2023-04-17T08:36:34.139Z,14.24
2023-04-17T08:37:34.293Z,14.30
2023-04-17T08:38:34.142Z,14.28
2023-04-17T08:39:34.142Z,13.93
2023-04-17T08:40:34.150Z,13.56
2023-04-17T08:41:34.155Z,13.35
2023-04-17T08:42:34.121Z,13.15
2023-04-17T08:43:34.082Z,12.99
2023-04-17T08:44:34.096Z,12.71
2023-04-17T08:45:34.090Z,12.48
2023-04-17T08:46:34.108Z,11.51
2023-04-17T08:47:34.407Z,12.02
2023-04-17T08:48:34.124Z,11.50
2023-04-17T08:49:34.082Z,11.11
2023-04-17T08:50:34.088Z,11.31
2023-04-17T08:51:34.064Z,11.81
2023-04-17T08:52:34.329Z,11.25
2023-04-17T08:53:34.080Z,11.60
2023-04-17T08:54:34.044Z,8.78
2023-04-17T08:55:34.042Z,8.88
2023-04-17T08:56:34.039Z,7.01
2023-04-17T08:57:34.008Z,6.72
2023-04-17T08:58:34.036Z,7.48
2023-04-17T08:59:34.035Z,7.76
2023-04-17T09:00:34.012Z,6.65
2023-04-17T09:01:34.106Z,6.95
2023-04-17T09:02:34.040Z,6.44
2023-04-17T09:03:34.170Z,6.70
2023-04-17T09:04:34.124Z,5.54
2023-04-17T09:05:33.985Z,5.18
2023-04-17T09:06:33.972Z,4.64
2023-04-17T09:07:34.345Z,4.20
2023-04-17T09:08:33.949Z,3.86
2023-04-17T09:09:33.973Z,3.40
2023-04-17T09:10:33.923Z,2.89
2023-04-17T09:11:33.910Z,2.75
2023-04-17T09:12:33.926Z,3.14
2023-04-17T09:13:33.939Z,3.78
2023-04-17T09:14:33.924Z,3.96
2023-04-17T09:15:34.002Z,4.09
2023-04-17T09:16:33.926Z,4.31
2023-04-17T09:17:33.891Z,4.44
2023-04-17T09:18:33.942Z,4.53
2023-04-17T09:19:35.197Z,4.52
2023-04-17T09:20:34.060Z,4.75
2023-04-17T09:21:34.061Z,4.90
2023-04-17T09:22:34.117Z,5.13
2023-04-17T09:23:34.227Z,4.92
2023-04-17T09:24:34.188Z,5.29
2023-04-17T09:25:34.204Z,5.50
2023-04-17T09:26:34.229Z,5.43
2023-04-17T09:27:34.382Z,5.47
2023-04-17T09:28:34.277Z,5.66
2023-04-17T09:29:34.280Z,6.07
2023-04-17T09:30:34.520Z,5.95
2023-04-17T09:31:34.467Z,6.16
2023-04-17T09:32:34.397Z,6.42
2023-04-17T09:33:34.290Z,6.29
2023-04-17T09:34:34.337Z,6.95
2023-04-17T09:35:35.836Z,8.68
2023-04-17T09:36:34.413Z,8.64
2023-04-17T09:37:34.295Z,9.05
2023-04-17T09:38:34.301Z,9.57
2023-04-17T09:39:34.287Z,9.42
2023-04-17T09:40:34.308Z,8.99
2023-04-17T09:41:34.307Z,8.83
2023-04-17T09:42:34.373Z,9.06
2023-04-17T09:43:34.253Z,8.37
2023-04-17T09:44:34.303Z,8.59
2023-04-17T09:45:34.243Z,8.82
2023-04-17T09:46:34.370Z,8.17
2023-04-17T09:47:34.391Z,8.59
2023-04-17T09:48:34.213Z,8.69
2023-04-17T09:49:34.248Z,8.24
2023-04-17T09:50:35.882Z,8.69
2023-04-17T09:51:34.217Z,8.70
2023-04-17T09:52:34.236Z,8.72
2023-04-17T09:53:34.181Z,8.44
2023-04-17T09:54:34.205Z,8.48
2023-04-17T09:55:34.179Z,8.50
2023-04-17T09:56:34.199Z,8.05
2023-04-17T09:57:34.169Z,7.99
2023-04-17T09:58:34.160Z,8.63
2023-04-17T09:59:34.161Z,8.33
2023-04-17T10:00:34.187Z,8.09
2023-04-17T10:01:34.146Z,8.05
2023-04-17T10:02:34.220Z,7.94
2023-04-17T10:03:37.128Z,7.99
2023-04-17T10:04:34.141Z,8.00
2023-04-17T10:05:34.113Z,8.02
2023-04-17T10:06:34.202Z,7.90
2023-04-17T10:07:34.145Z,7.42
2023-04-17T10:08:34.268Z,7.78
2023-04-17T10:09:34.090Z,7.66
2023-04-17T10:10:34.366Z,7.69
2023-04-17T10:11:34.126Z,7.47
2023-04-17T10:12:34.896Z,7.29
2023-04-17T10:13:34.062Z,7.17
2023-04-17T10:14:34.094Z,7.09
2023-04-17T10:15:34.112Z,7.20
2023-04-17T10:16:34.125Z,7.07
2023-04-17T10:17:34.506Z,7.03
2023-04-17T10:18:34.045Z,6.84
2023-04-17T10:19:34.041Z,6.77
2023-04-17T10:20:33.997Z,6.67
2023-04-17T10:21:34.000Z,6.74
2023-04-17T10:22:34.014Z,6.59
2023-04-17T10:23:33.970Z,6.48
2023-04-17T10:24:33.989Z,6.48
2023-04-17T10:25:33.985Z,6.31
2023-04-17T10:26:33.953Z,6.28
2023-04-17T10:27:33.996Z,6.18
2023-04-17T10:28:33.963Z,6.18
2023-04-17T10:29:33.976Z,6.09
2023-04-17T10:30:33.977Z,6.01
2023-04-17T10:31:34.026Z,5.97
2023-04-17T10:32:34.004Z,5.85
2023-04-17T10:33:33.924Z,5.81
2023-04-17T10:34:33.917Z,5.67
2023-04-17T10:35:33.944Z,5.64
2023-04-17T10:36:33.945Z,5.69
2023-04-17T10:37:34.357Z,5.51
2023-04-17T10:38:33.980Z,5.50
2023-04-17T10:39:34.094Z,5.45
2023-04-17T10:40:34.127Z,5.39
2023-04-17T10:41:34.158Z,5.26
2023-04-17T10:42:34.216Z,5.28
2023-04-17T10:43:34.283Z,5.23
2023-04-17T10:44:34.351Z,5.31
2023-04-17T10:45:34.371Z,5.32
2023-04-17T10:46:34.487Z,5.27
2023-04-17T10:47:34.507Z,5.27
2023-04-17T10:48:34.534Z,5.32
2023-04-17T10:49:34.552Z,5.37
2023-04-17T10:50:35.358Z,5.43
2023-04-17T10:51:34.639Z,5.36
2023-04-17T10:52:34.861Z,5.64
2023-04-17T10:53:34.761Z,6.18
2023-04-17T10:54:34.784Z,6.30
2023-04-17T10:55:34.811Z,6.02
2023-04-17T10:56:34.858Z,6.00
2023-04-17T10:57:34.919Z,6.07
2023-04-17T10:58:34.952Z,5.99
2023-04-17T10:59:35.865Z,6.25
2023-04-17T11:00:35.045Z,6.53
2023-04-17T11:01:35.121Z,6.52
2023-04-17T11:02:35.179Z,6.52
2023-04-17T11:03:35.169Z,6.53
2023-04-17T11:04:35.296Z,6.37
2023-04-17T11:05:35.207Z,6.67
2023-04-17T11:06:35.258Z,6.94
2023-04-17T11:07:35.321Z,7.20
2023-04-17T11:08:35.326Z,7.35
2023-04-17T11:09:35.353Z,7.30
2023-04-17T11:10:35.366Z,7.88
2023-04-17T11:12:35.395Z,7.94
2023-04-17T11:13:35.353Z,8.01
2023-04-17T11:14:35.363Z,7.97
2023-04-17T11:15:35.360Z,8.32
2023-04-17T11:16:35.355Z,9.13
2023-04-17T11:17:35.400Z,9.37
2023-04-17T11:18:35.366Z,8.94
2023-04-17T11:19:35.341Z,9.46
2023-04-17T11:20:35.319Z,9.75
2023-04-17T11:21:35.316Z,10.06
2023-04-17T11:22:35.308Z,10.11
2023-04-17T11:23:35.309Z,10.50
2023-04-17T11:24:35.304Z,10.10
2023-04-17T11:25:35.310Z,10.63
2023-04-17T11:26:35.283Z,10.47
2023-04-17T11:27:35.286Z,10.54
2023-04-17T11:28:35.313Z,10.75
2023-04-17T11:29:35.253Z,10.84
2023-04-17T11:30:35.375Z,12.77
2023-04-17T11:31:35.388Z,12.28
2023-04-17T11:32:35.409Z,11.57
2023-04-17T11:33:35.890Z,10.76
2023-04-17T11:34:35.440Z,11.31
2023-04-17T11:35:35.473Z,10.81
2023-04-17T11:36:35.538Z,10.55
2023-04-17T11:37:35.553Z,10.40
2023-04-17T11:38:35.880Z,10.24
2023-04-17T11:39:35.647Z,10.18
2023-04-17T11:40:35.711Z,9.47
2023-04-17T11:41:35.725Z,9.91
2023-04-17T11:42:35.768Z,9.71
2023-04-17T11:43:35.783Z,9.85
2023-04-17T11:44:35.819Z,9.69
2023-04-17T11:45:35.874Z,9.70
2023-04-17T11:46:35.991Z,9.56
2023-04-17T11:47:36.019Z,9.48
2023-04-17T11:48:36.389Z,9.30
2023-04-17T11:49:36.080Z,9.41
2023-04-17T11:50:36.206Z,9.50
2023-04-17T11:51:36.135Z,9.36
2023-04-17T11:52:36.193Z,9.31
2023-04-17T11:53:36.279Z,9.45
2023-04-17T11:54:36.284Z,9.31
2023-04-17T11:55:36.362Z,9.32
2023-04-17T11:56:36.408Z,9.34
2023-04-17T11:57:36.441Z,9.42
2023-04-17T11:58:36.485Z,9.28
2023-04-17T11:59:36.516Z,9.43
2023-04-17T12:00:36.612Z,9.35
2023-04-17T12:01:36.595Z,9.32
2023-04-17T12:02:36.697Z,9.10
2023-04-17T12:03:37.174Z,8.84
2023-04-17T12:04:37.111Z,8.99
2023-04-17T12:05:36.806Z,9.41
2023-04-17T12:06:36.835Z,9.50
2023-04-17T12:07:36.888Z,9.80
2023-04-17T12:08:36.895Z,9.83
2023-04-17T12:09:36.944Z,9.18
2023-04-17T12:10:36.991Z,9.81
2023-04-17T12:11:37.040Z,10.65
2023-04-17T12:12:37.071Z,10.09
2023-04-17T12:13:37.092Z,10.40
2023-04-17T12:14:37.157Z,9.76
2023-04-17T12:15:37.166Z,9.66
2023-04-17T12:16:37.357Z,9.40
2023-04-17T12:17:37.297Z,9.11
2023-04-17T12:18:37.317Z,9.44
2023-04-17T12:19:37.324Z,9.43
2023-04-17T12:20:37.388Z,9.18
2023-04-17T12:21:37.451Z,9.31
2023-04-17T12:22:37.465Z,9.43
2023-04-17T12:23:37.512Z,9.32
2023-04-17T12:24:37.525Z,9.03
2023-04-17T12:25:37.583Z,9.05
2023-04-17T12:26:37.659Z,8.88
2023-04-17T12:27:37.839Z,8.58
2023-04-17T12:28:37.731Z,8.59
2023-04-17T12:30:38.778Z,8.66
2023-04-17T12:31:37.831Z,8.66
2023-04-17T12:32:37.836Z,8.67
2023-04-17T12:33:37.737Z,8.53
2023-04-17T12:34:37.745Z,8.56
2023-04-17T12:35:37.742Z,8.55
2023-04-17T12:36:37.739Z,8.70
2023-04-17T12:37:37.733Z,8.48
2023-04-17T12:38:37.717Z,8.64
2023-04-17T12:39:37.730Z,8.69
2023-04-17T12:40:37.785Z,8.68
2023-04-17T12:41:37.805Z,8.52
2023-04-17T12:42:48.359Z,8.52
2023-04-17T12:43:38.858Z,8.52
2023-04-17T12:44:37.942Z,8.56
2023-04-17T12:45:38.337Z,8.58
2023-04-17T12:46:37.866Z,8.60
2023-04-17T12:47:37.844Z,8.57
2023-04-17T12:48:37.850Z,8.66
2023-04-17T12:49:37.819Z,8.69
2023-04-17T12:50:37.844Z,8.58
2023-04-17T12:51:38.077Z,8.52
2023-04-17T12:52:37.866Z,8.29
2023-04-17T12:53:37.926Z,8.46
2023-04-17T12:54:37.967Z,8.38
2023-04-17T12:55:38.029Z,8.40
2023-04-17T12:56:38.111Z,8.41
2023-04-17T12:57:38.176Z,8.25
2023-04-17T12:58:38.208Z,8.34
2023-04-17T12:59:38.246Z,8.32
2023-04-17T13:00:38.316Z,8.27
2023-04-17T13:01:38.509Z,8.20
2023-04-17T13:02:38.498Z,8.20
2023-04-17T13:03:38.607Z,8.19
2023-04-17T13:04:38.693Z,8.22
2023-04-17T13:05:38.583Z,8.16
2023-04-17T13:06:38.645Z,8.19
2023-04-17T13:07:38.723Z,8.03
2023-04-17T13:08:38.784Z,8.02
2023-04-17T13:09:38.836Z,8.02
2023-04-17T13:10:38.890Z,7.98
2023-04-17T13:11:38.914Z,7.80
2023-04-17T13:12:38.984Z,7.78
2023-04-17T13:13:39.064Z,7.84
2023-04-17T13:14:39.103Z,7.73
2023-04-17T13:15:39.169Z,7.68
2023-04-17T13:16:39.292Z,7.74
2023-04-17T13:17:39.281Z,7.61